sensor_id;sensor_type;location;lat;lon;timestamp;P1;durP1;ratioP1;P2;durP2;ratioP2
68300;SDS011;55146;47.468;18.806;2023-04-21T00:01:44;9.67;;;5.93;;
68300;SDS011;55146;47.468;18.806;2023-04-21T00:04:09;9.20;;;5.37;;
68300;SDS011;55146;47.468;18.806;2023-04-21T00:06:37;10.93;;;5.00;;
68300;SDS011;55146;47.468;18.806;2023-04-21T00:09:06;11.25;;;5.80;;
68300;SDS011;55146;47.468;18.806;2023-04-21T00:11:32;11.52;;;6.25;;
68300;SDS011;55146;47.468;18.806;2023-04-21T00:13:57;10.47;;;5.73;;
68300;SDS011;55146;47.468;18.806;2023-04-21T00:16:23;10.47;;;5.57;;
68300;SDS011;55146;47.468;18.806;2023-04-21T00:18:48;8.00;;;5.40;;
68300;SDS011;55146;47.468;18.806;2023-04-21T00:21:14;8.00;;;5.20;;
68300;SDS011;55146;47.468;18.806;2023-04-21T00:23:40;11.32;;;5.22;;
68300;SDS011;55146;47.468;18.806;2023-04-21T00:26:05;13.37;;;5.30;;
68300;SDS011;55146;47.468;18.806;2023-04-21T00:28:30;9.37;;;5.53;;
68300;SDS011;55146;47.468;18.806;2023-04-21T00:30:56;9.47;;;5.73;;
68300;SDS011;55146;47.468;18.806;2023-04-21T00:33:21;9.67;;;5.63;;
68300;SDS011;55146;47.468;18.806;2023-04-21T00:35:47;9.83;;;4.93;;
68300;SDS011;55146;47.468;18.806;2023-04-21T00:38:12;10.00;;;5.83;;
68300;SDS011;55146;47.468;18.806;2023-04-21T00:40:37;8.87;;;4.40;;
68300;SDS011;55146;47.468;18.806;2023-04-21T00:43:06;10.60;;;5.97;;
68300;SDS011;55146;47.468;18.806;2023-04-21T00:45:31;10.15;;;4.95;;
68300;SDS011;55146;47.468;18.806;2023-04-21T00:47:57;11.00;;;5.63;;
68300;SDS011;55146;47.468;18.806;2023-04-21T00:50:23;9.35;;;4.97;;
68300;SDS011;55146;47.468;18.806;2023-04-21T00:52:49;9.07;;;5.00;;
68300;SDS011;55146;47.468;18.806;2023-04-21T00:55:14;9.70;;;6.13;;
68300;SDS011;55146;47.468;18.806;2023-04-21T00:57:40;7.75;;;5.62;;
68300;SDS011;55146;47.468;18.806;2023-04-21T01:00:06;9.53;;;5.83;;
68300;SDS011;55146;47.468;18.806;2023-04-21T01:02:33;9.15;;;4.68;;
68300;SDS011;55146;47.468;18.806;2023-04-21T01:05:00;8.43;;;4.97;;
68300;SDS011;55146;47.468;18.806;2023-04-21T01:07:25;10.90;;;5.72;;
68300;SDS011;55146;47.468;18.806;2023-04-21T01:09:52;13.33;;;5.10;;
68300;SDS011;55146;47.468;18.806;2023-04-21T01:12:17;12.23;;;5.65;;
68300;SDS011;55146;47.468;18.806;2023-04-21T01:14:42;8.93;;;5.50;;
68300;SDS011;55146;47.468;18.806;2023-04-21T01:17:08;8.87;;;5.10;;
68300;SDS011;55146;47.468;18.806;2023-04-21T01:19:36;9.80;;;5.37;;
68300;SDS011;55146;47.468;18.806;2023-04-21T01:22:07;9.20;;;4.80;;
68300;SDS011;55146;47.468;18.806;2023-04-21T01:27:03;9.90;;;5.70;;
68300;SDS011;55146;47.468;18.806;2023-04-21T01:29:34;9.20;;;5.40;;
68300;SDS011;55146;47.468;18.806;2023-04-21T01:32:04;11.17;;;4.83;;
68300;SDS011;55146;47.468;18.806;2023-04-21T01:34:31;9.15;;;4.68;;
68300;SDS011;55146;47.468;18.806;2023-04-21T01:36:56;11.10;;;6.07;;
68300;SDS011;55146;47.468;18.806;2023-04-21T01:39:21;8.57;;;4.70;;
68300;SDS011;55146;47.468;18.806;2023-04-21T01:41:47;13.70;;;5.45;;
68300;SDS011;55146;47.468;18.806;2023-04-21T01:44:12;7.87;;;5.30;;
68300;SDS011;55146;47.468;18.806;2023-04-21T01:46:37;11.50;;;5.30;;
68300;SDS011;55146;47.468;18.806;2023-04-21T01:49:03;18.77;;;6.13;;
68300;SDS011;55146;47.468;18.806;2023-04-21T01:51:28;9.73;;;5.97;;
68300;SDS011;55146;47.468;18.806;2023-04-21T01:53:53;12.80;;;5.70;;
68300;SDS011;55146;47.468;18.806;2023-04-21T01:56:19;12.23;;;5.93;;
68300;SDS011;55146;47.468;18.806;2023-04-21T01:58:44;10.55;;;5.18;;
68300;SDS011;55146;47.468;18.806;2023-04-21T02:01:10;8.60;;;4.80;;
68300;SDS011;55146;47.468;18.806;2023-04-21T02:03:35;10.47;;;4.83;;
68300;SDS011;55146;47.468;18.806;2023-04-21T02:06:00;10.33;;;4.97;;
68300;SDS011;55146;47.468;18.806;2023-04-21T02:08:26;9.40;;;4.93;;
68300;SDS011;55146;47.468;18.806;2023-04-21T02:10:51;10.03;;;5.70;;
68300;SDS011;55146;47.468;18.806;2023-04-21T02:13:16;10.05;;;5.12;;
68300;SDS011;55146;47.468;18.806;2023-04-21T02:15:42;13.20;;;5.40;;
68300;SDS011;55146;47.468;18.806;2023-04-21T02:18:07;12.53;;;5.53;;
68300;SDS011;55146;47.468;18.806;2023-04-21T02:20:32;11.63;;;4.93;;
68300;SDS011;55146;47.468;18.806;2023-04-21T02:22:58;15.30;;;5.80;;
68300;SDS011;55146;47.468;18.806;2023-04-21T02:25:23;12.03;;;5.07;;
68300;SDS011;55146;47.468;18.806;2023-04-21T02:27:48;12.63;;;5.37;;
68300;SDS011;55146;47.468;18.806;2023-04-21T02:30:14;11.00;;;5.37;;
68300;SDS011;55146;47.468;18.806;2023-04-21T02:32:39;11.63;;;5.87;;
68300;SDS011;55146;47.468;18.806;2023-04-21T02:35:04;10.67;;;5.27;;
68300;SDS011;55146;47.468;18.806;2023-04-21T02:37:30;10.27;;;5.03;;
68300;SDS011;55146;47.468;18.806;2023-04-21T02:39:55;13.20;;;5.80;;
68300;SDS011;55146;47.468;18.806;2023-04-21T02:42:21;10.10;;;4.97;;
68300;SDS011;55146;47.468;18.806;2023-04-21T02:44:46;9.90;;;5.13;;
68300;SDS011;55146;47.468;18.806;2023-04-21T02:47:13;10.10;;;4.90;;
68300;SDS011;55146;47.468;18.806;2023-04-21T02:49:42;9.43;;;5.85;;
68300;SDS011;55146;47.468;18.806;2023-04-21T02:52:08;10.70;;;6.37;;
68300;SDS011;55146;47.468;18.806;2023-04-21T02:54:33;8.40;;;5.07;;
68300;SDS011;55146;47.468;18.806;2023-04-21T02:56:59;9.27;;;6.43;;
68300;SDS011;55146;47.468;18.806;2023-04-21T02:59:25;10.63;;;5.43;;
68300;SDS011;55146;47.468;18.806;2023-04-21T03:01:50;9.77;;;5.53;;
68300;SDS011;55146;47.468;18.806;2023-04-21T03:04:16;10.57;;;5.67;;
68300;SDS011;55146;47.468;18.806;2023-04-21T03:06:41;9.87;;;5.13;;
68300;SDS011;55146;47.468;18.806;2023-04-21T03:09:06;9.82;;;5.05;;
68300;SDS011;55146;47.468;18.806;2023-04-21T03:11:32;9.03;;;4.90;;
68300;SDS011;55146;47.468;18.806;2023-04-21T03:13:57;8.10;;;4.97;;
68300;SDS011;55146;47.468;18.806;2023-04-21T03:16:22;9.77;;;5.43;;
68300;SDS011;55146;47.468;18.806;2023-04-21T03:18:48;10.17;;;6.03;;
68300;SDS011;55146;47.468;18.806;2023-04-21T03:21:13;8.97;;;5.63;;
68300;SDS011;55146;47.468;18.806;2023-04-21T03:23:38;10.98;;;5.32;;
68300;SDS011;55146;47.468;18.806;2023-04-21T03:26:07;9.43;;;5.13;;
68300;SDS011;55146;47.468;18.806;2023-04-21T03:28:33;8.85;;;4.47;;
68300;SDS011;55146;47.468;18.806;2023-04-21T03:30:58;11.90;;;5.50;;
68300;SDS011;55146;47.468;18.806;2023-04-21T03:33:24;9.45;;;4.80;;
68300;SDS011;55146;47.468;18.806;2023-04-21T03:35:49;11.43;;;5.83;;
68300;SDS011;55146;47.468;18.806;2023-04-21T03:38:15;11.93;;;5.53;;
68300;SDS011;55146;47.468;18.806;2023-04-21T03:40:40;9.30;;;5.50;;
68300;SDS011;55146;47.468;18.806;2023-04-21T03:43:06;9.05;;;6.12;;
68300;SDS011;55146;47.468;18.806;2023-04-21T03:45:31;9.13;;;5.00;;
68300;SDS011;55146;47.468;18.806;2023-04-21T03:47:59;9.52;;;5.00;;
68300;SDS011;55146;47.468;18.806;2023-04-21T03:50:24;11.00;;;5.97;;
68300;SDS011;55146;47.468;18.806;2023-04-21T03:52:50;12.17;;;5.20;;
68300;SDS011;55146;47.468;18.806;2023-04-21T03:55:15;9.17;;;4.43;;
68300;SDS011;55146;47.468;18.806;2023-04-21T03:57:41;9.67;;;4.37;;
68300;SDS011;55146;47.468;18.806;2023-04-21T04:00:06;11.32;;;5.07;;
68300;SDS011;55146;47.468;18.806;2023-04-21T04:02:34;8.35;;;5.25;;
68300;SDS011;55146;47.468;18.806;2023-04-21T04:05:01;7.63;;;4.80;;
68300;SDS011;55146;47.468;18.806;2023-04-21T04:07:27;13.15;;;5.43;;
68300;SDS011;55146;47.468;18.806;2023-04-21T04:09:53;10.77;;;5.50;;
68300;SDS011;55146;47.468;18.806;2023-04-21T04:12:18;9.50;;;4.77;;
68300;SDS011;55146;47.468;18.806;2023-04-21T04:14:44;11.93;;;4.53;;
68300;SDS011;55146;47.468;18.806;2023-04-21T04:17:09;13.63;;;4.53;;
68300;SDS011;55146;47.468;18.806;2023-04-21T04:19:34;12.67;;;5.30;;
68300;SDS011;55146;47.468;18.806;2023-04-21T04:22:00;8.10;;;4.75;;
68300;SDS011;55146;47.468;18.806;2023-04-21T04:24:26;10.53;;;5.33;;
68300;SDS011;55146;47.468;18.806;2023-04-21T04:26:52;11.20;;;4.95;;
68300;SDS011;55146;47.468;18.806;2023-04-21T04:29:22;10.48;;;5.12;;
68300;SDS011;55146;47.468;18.806;2023-04-21T04:31:48;10.60;;;4.83;;
68300;SDS011;55146;47.468;18.806;2023-04-21T04:34:14;11.60;;;5.40;;
68300;SDS011;55146;47.468;18.806;2023-04-21T04:36:40;12.23;;;5.27;;
68300;SDS011;55146;47.468;18.806;2023-04-21T04:39:06;11.63;;;5.10;;
68300;SDS011;55146;47.468;18.806;2023-04-21T04:41:34;9.65;;;5.75;;
68300;SDS011;55146;47.468;18.806;2023-04-21T04:44:00;12.02;;;5.55;;
68300;SDS011;55146;47.468;18.806;2023-04-21T04:46:29;15.20;;;5.73;;
68300;SDS011;55146;47.468;18.806;2023-04-21T04:48:58;12.05;;;5.62;;
68300;SDS011;55146;47.468;18.806;2023-04-21T04:51:26;13.07;;;5.32;;
68300;SDS011;55146;47.468;18.806;2023-04-21T04:53:51;14.73;;;6.20;;
68300;SDS011;55146;47.468;18.806;2023-04-21T04:56:17;10.77;;;5.47;;
68300;SDS011;55146;47.468;18.806;2023-04-21T04:58:42;10.70;;;5.80;;
68300;SDS011;55146;47.468;18.806;2023-04-21T05:01:16;15.00;;;6.25;;
68300;SDS011;55146;47.468;18.806;2023-04-21T05:03:42;10.50;;;4.90;;
68300;SDS011;55146;47.468;18.806;2023-04-21T05:06:09;10.95;;;4.97;;
68300;SDS011;55146;47.468;18.806;2023-04-21T05:08:35;13.40;;;5.53;;
68300;SDS011;55146;47.468;18.806;2023-04-21T05:11:00;13.53;;;5.97;;
68300;SDS011;55146;47.468;18.806;2023-04-21T05:13:26;13.73;;;5.95;;
68300;SDS011;55146;47.468;18.806;2023-04-21T05:15:57;15.90;;;6.73;;
68300;SDS011;55146;47.468;18.806;2023-04-21T05:18:25;14.13;;;5.70;;
68300;SDS011;55146;47.468;18.806;2023-04-21T05:20:51;11.67;;;5.63;;
68300;SDS011;55146;47.468;18.806;2023-04-21T05:23:16;9.97;;;5.70;;
68300;SDS011;55146;47.468;18.806;2023-04-21T05:25:42;11.83;;;5.53;;
68300;SDS011;55146;47.468;18.806;2023-04-21T05:28:13;9.38;;;5.57;;
68300;SDS011;55146;47.468;18.806;2023-04-21T05:30:45;12.02;;;6.30;;
68300;SDS011;55146;47.468;18.806;2023-04-21T05:33:12;11.32;;;3.90;;
68300;SDS011;55146;47.468;18.806;2023-04-21T05:35:38;9.30;;;4.63;;
68300;SDS011;55146;47.468;18.806;2023-04-21T05:38:04;11.00;;;4.57;;
68300;SDS011;55146;47.468;18.806;2023-04-21T05:40:30;8.40;;;4.28;;
68300;SDS011;55146;47.468;18.806;2023-04-21T05:42:55;10.00;;;4.53;;
68300;SDS011;55146;47.468;18.806;2023-04-21T05:45:20;11.40;;;4.97;;
68300;SDS011;55146;47.468;18.806;2023-04-21T05:47:46;11.73;;;4.70;;
68300;SDS011;55146;47.468;18.806;2023-04-21T05:50:11;11.47;;;4.70;;
68300;SDS011;55146;47.468;18.806;2023-04-21T05:52:37;9.67;;;4.47;;
68300;SDS011;55146;47.468;18.806;2023-04-21T05:55:02;10.75;;;3.65;;
68300;SDS011;55146;47.468;18.806;2023-04-21T05:57:28;9.40;;;4.93;;
68300;SDS011;55146;47.468;18.806;2023-04-21T05:59:53;10.95;;;4.05;;
68300;SDS011;55146;47.468;18.806;2023-04-21T06:02:19;10.67;;;4.57;;
68300;SDS011;55146;47.468;18.806;2023-04-21T06:04:44;8.40;;;4.03;;
68300;SDS011;55146;47.468;18.806;2023-04-21T06:07:09;24.90;;;9.90;;
68300;SDS011;55146;47.468;18.806;2023-04-21T06:09:37;9.98;;;4.15;;
68300;SDS011;55146;47.468;18.806;2023-04-21T06:12:04;10.33;;;3.30;;
68300;SDS011;55146;47.468;18.806;2023-04-21T06:14:30;10.25;;;4.30;;
68300;SDS011;55146;47.468;18.806;2023-04-21T06:16:55;11.63;;;3.87;;
68300;SDS011;55146;47.468;18.806;2023-04-21T06:19:21;12.73;;;4.80;;
68300;SDS011;55146;47.468;18.806;2023-04-21T06:21:47;10.15;;;4.18;;
68300;SDS011;55146;47.468;18.806;2023-04-21T06:24:13;15.25;;;4.87;;
68300;SDS011;55146;47.468;18.806;2023-04-21T06:26:38;9.83;;;4.00;;
68300;SDS011;55146;47.468;18.806;2023-04-21T06:29:04;12.13;;;3.40;;
68300;SDS011;55146;47.468;18.806;2023-04-21T06:31:29;15.75;;;3.95;;
68300;SDS011;55146;47.468;18.806;2023-04-21T06:33:55;14.87;;;4.57;;
68300;SDS011;55146;47.468;18.806;2023-04-21T06:36:20;10.83;;;3.63;;
68300;SDS011;55146;47.468;18.806;2023-04-21T06:38:46;15.65;;;4.30;;
68300;SDS011;55146;47.468;18.806;2023-04-21T06:41:12;13.27;;;5.00;;
68300;SDS011;55146;47.468;18.806;2023-04-21T06:43:38;13.40;;;4.40;;
68300;SDS011;55146;47.468;18.806;2023-04-21T06:46:03;17.97;;;4.83;;
68300;SDS011;55146;47.468;18.806;2023-04-21T06:48:28;11.00;;;3.30;;
68300;SDS011;55146;47.468;18.806;2023-04-21T06:50:54;6.82;;;4.18;;
68300;SDS011;55146;47.468;18.806;2023-04-21T06:53:20;15.60;;;3.93;;
68300;SDS011;55146;47.468;18.806;2023-04-21T06:55:45;8.63;;;4.03;;
68300;SDS011;55146;47.468;18.806;2023-04-21T06:58:11;11.07;;;3.87;;
68300;SDS011;55146;47.468;18.806;2023-04-21T07:00:37;12.13;;;3.83;;
68300;SDS011;55146;47.468;18.806;2023-04-21T07:03:02;9.18;;;3.60;;
68300;SDS011;55146;47.468;18.806;2023-04-21T07:05:28;8.67;;;3.60;;
68300;SDS011;55146;47.468;18.806;2023-04-21T07:07:53;8.73;;;3.70;;
68300;SDS011;55146;47.468;18.806;2023-04-21T07:10:23;8.63;;;3.22;;
68300;SDS011;55146;47.468;18.806;2023-04-21T07:12:48;11.00;;;3.77;;
68300;SDS011;55146;47.468;18.806;2023-04-21T07:15:14;11.38;;;3.95;;
68300;SDS011;55146;47.468;18.806;2023-04-21T07:17:40;12.63;;;4.40;;
68300;SDS011;55146;47.468;18.806;2023-04-21T07:20:05;12.57;;;3.57;;
68300;SDS011;55146;47.468;18.806;2023-04-21T07:22:31;9.15;;;3.37;;
68300;SDS011;55146;47.468;18.806;2023-04-21T07:24:58;11.77;;;4.40;;
68300;SDS011;55146;47.468;18.806;2023-04-21T07:27:23;12.27;;;4.90;;
68300;SDS011;55146;47.468;18.806;2023-04-21T07:29:49;8.53;;;3.53;;
68300;SDS011;55146;47.468;18.806;2023-04-21T07:32:14;11.23;;;3.13;;
68300;SDS011;55146;47.468;18.806;2023-04-21T07:34:40;7.73;;;3.70;;
68300;SDS011;55146;47.468;18.806;2023-04-21T07:37:05;11.75;;;4.03;;
68300;SDS011;55146;47.468;18.806;2023-04-21T07:39:31;10.20;;;3.83;;
68300;SDS011;55146;47.468;18.806;2023-04-21T07:41:56;10.17;;;3.60;;
68300;SDS011;55146;47.468;18.806;2023-04-21T07:44:21;11.63;;;4.13;;
68300;SDS011;55146;47.468;18.806;2023-04-21T07:46:46;12.27;;;4.07;;
68300;SDS011;55146;47.468;18.806;2023-04-21T07:49:12;12.00;;;3.77;;
68300;SDS011;55146;47.468;18.806;2023-04-21T07:51:37;11.80;;;4.13;;
68300;SDS011;55146;47.468;18.806;2023-04-21T07:54:04;13.25;;;3.30;;
68300;SDS011;55146;47.468;18.806;2023-04-21T07:56:29;7.87;;;3.00;;
68300;SDS011;55146;47.468;18.806;2023-04-21T07:58:55;14.13;;;3.30;;
68300;SDS011;55146;47.468;18.806;2023-04-21T08:01:20;15.20;;;4.00;;
68300;SDS011;55146;47.468;18.806;2023-04-21T08:03:47;10.95;;;3.20;;
68300;SDS011;55146;47.468;18.806;2023-04-21T08:06:13;7.50;;;3.37;;
68300;SDS011;55146;47.468;18.806;2023-04-21T08:08:38;12.83;;;3.93;;
68300;SDS011;55146;47.468;18.806;2023-04-21T08:11:03;13.20;;;3.77;;
68300;SDS011;55146;47.468;18.806;2023-04-21T08:13:29;22.50;;;6.10;;
68300;SDS011;55146;47.468;18.806;2023-04-21T08:15:54;16.43;;;3.40;;
68300;SDS011;55146;47.468;18.806;2023-04-21T08:18:20;10.97;;;3.77;;
68300;SDS011;55146;47.468;18.806;2023-04-21T08:20:45;10.40;;;3.75;;
68300;SDS011;55146;47.468;18.806;2023-04-21T08:23:12;14.73;;;3.72;;
68300;SDS011;55146;47.468;18.806;2023-04-21T08:25:40;11.33;;;4.30;;
68300;SDS011;55146;47.468;18.806;2023-04-21T08:28:05;14.93;;;4.68;;
68300;SDS011;55146;47.468;18.806;2023-04-21T08:30:31;15.00;;;3.90;;
68300;SDS011;55146;47.468;18.806;2023-04-21T08:32:57;13.93;;;4.03;;
68300;SDS011;55146;47.468;18.806;2023-04-21T08:35:22;12.73;;;4.13;;
68300;SDS011;55146;47.468;18.806;2023-04-21T08:37:48;11.73;;;4.72;;
68300;SDS011;55146;47.468;18.806;2023-04-21T08:40:13;11.57;;;3.73;;
68300;SDS011;55146;47.468;18.806;2023-04-21T08:42:39;14.73;;;4.57;;
68300;SDS011;55146;47.468;18.806;2023-04-21T08:45:04;11.50;;;3.50;;
68300;SDS011;55146;47.468;18.806;2023-04-21T08:47:33;12.00;;;4.93;;
68300;SDS011;55146;47.468;18.806;2023-04-21T08:50:00;11.88;;;3.62;;
68300;SDS011;55146;47.468;18.806;2023-04-21T08:52:26;14.70;;;4.37;;
68300;SDS011;55146;47.468;18.806;2023-04-21T08:54:51;13.47;;;4.27;;
68300;SDS011;55146;47.468;18.806;2023-04-21T08:57:20;10.93;;;4.15;;
68300;SDS011;55146;47.468;18.806;2023-04-21T08:59:45;13.35;;;4.80;;
68300;SDS011;55146;47.468;18.806;2023-04-21T09:04:41;13.43;;;3.90;;
68300;SDS011;55146;47.468;18.806;2023-04-21T09:07:07;10.57;;;3.57;;
68300;SDS011;55146;47.468;18.806;2023-04-21T09:12:17;16.08;;;4.75;;
68300;SDS011;55146;47.468;18.806;2023-04-21T09:14:43;13.40;;;4.73;;
68300;SDS011;55146;47.468;18.806;2023-04-21T09:17:08;11.60;;;3.53;;
68300;SDS011;55146;47.468;18.806;2023-04-21T09:19:34;11.50;;;4.62;;
68300;SDS011;55146;47.468;18.806;2023-04-21T09:22:00;17.70;;;4.90;;
68300;SDS011;55146;47.468;18.806;2023-04-21T09:24:25;10.37;;;3.70;;
68300;SDS011;55146;47.468;18.806;2023-04-21T09:26:51;13.35;;;4.35;;
68300;SDS011;55146;47.468;18.806;2023-04-21T09:29:17;9.10;;;3.70;;
68300;SDS011;55146;47.468;18.806;2023-04-21T09:31:43;10.50;;;4.87;;
68300;SDS011;55146;47.468;18.806;2023-04-21T09:34:18;14.13;;;4.60;;
68300;SDS011;55146;47.468;18.806;2023-04-21T09:36:48;12.10;;;4.28;;
68300;SDS011;55146;47.468;18.806;2023-04-21T09:39:23;11.17;;;3.87;;
68300;SDS011;55146;47.468;18.806;2023-04-21T09:41:48;13.90;;;4.30;;
68300;SDS011;55146;47.468;18.806;2023-04-21T09:44:14;12.50;;;4.50;;
68300;SDS011;55146;47.468;18.806;2023-04-21T09:46:41;13.40;;;4.23;;
68300;SDS011;55146;47.468;18.806;2023-04-21T09:49:08;15.30;;;4.87;;
68300;SDS011;55146;47.468;18.806;2023-04-21T09:51:37;11.38;;;4.37;;
68300;SDS011;55146;47.468;18.806;2023-04-21T09:54:14;12.95;;;4.57;;
68300;SDS011;55146;47.468;18.806;2023-04-21T09:56:41;10.82;;;4.87;;
68300;SDS011;55146;47.468;18.806;2023-04-21T09:59:07;14.80;;;4.70;;
68300;SDS011;55146;47.468;18.806;2023-04-21T10:01:41;11.45;;;4.47;;
68300;SDS011;55146;47.468;18.806;2023-04-21T10:04:09;13.68;;;4.97;;
68300;SDS011;55146;47.468;18.806;2023-04-21T10:06:35;12.73;;;4.62;;
68300;SDS011;55146;47.468;18.806;2023-04-21T10:09:01;15.23;;;5.23;;
68300;SDS011;55146;47.468;18.806;2023-04-21T10:11:29;15.40;;;5.32;;
68300;SDS011;55146;47.468;18.806;2023-04-21T10:13:56;11.07;;;5.00;;
68300;SDS011;55146;47.468;18.806;2023-04-21T10:16:22;13.68;;;5.00;;
68300;SDS011;55146;47.468;18.806;2023-04-21T10:18:48;11.03;;;4.77;;
68300;SDS011;55146;47.468;18.806;2023-04-21T10:21:17;12.30;;;5.03;;
68300;SDS011;55146;47.468;18.806;2023-04-21T10:23:49;13.95;;;5.30;;
68300;SDS011;55146;47.468;18.806;2023-04-21T10:26:31;13.77;;;5.05;;
68300;SDS011;55146;47.468;18.806;2023-04-21T10:28:59;14.00;;;5.20;;
68300;SDS011;55146;47.468;18.806;2023-04-21T10:31:29;9.93;;;5.47;;
68300;SDS011;55146;47.468;18.806;2023-04-21T10:44:42;8.13;;;4.90;;
68300;SDS011;55146;47.468;18.806;2023-04-21T10:47:08;14.30;;;5.95;;
68300;SDS011;55146;47.468;18.806;2023-04-21T10:49:38;8.93;;;5.50;;
68300;SDS011;55146;47.468;18.806;2023-04-21T10:52:07;14.05;;;6.40;;
68300;SDS011;55146;47.468;18.806;2023-04-21T10:57:10;10.60;;;5.75;;
68300;SDS011;55146;47.468;18.806;2023-04-21T10:59:37;14.52;;;6.32;;
68300;SDS011;55146;47.468;18.806;2023-04-21T11:02:06;15.38;;;7.45;;
68300;SDS011;55146;47.468;18.806;2023-04-21T11:04:34;10.98;;;7.05;;
68300;SDS011;55146;47.468;18.806;2023-04-21T11:07:04;12.60;;;6.77;;
68300;SDS011;55146;47.468;18.806;2023-04-21T11:09:34;10.18;;;6.32;;
68300;SDS011;55146;47.468;18.806;2023-04-21T11:12:01;12.50;;;6.53;;
68300;SDS011;55146;47.468;18.806;2023-04-21T11:14:33;15.63;;;10.13;;
68300;SDS011;55146;47.468;18.806;2023-04-21T11:17:01;26.65;;;12.77;;
68300;SDS011;55146;47.468;18.806;2023-04-21T11:19:26;10.85;;;6.35;;
68300;SDS011;55146;47.468;18.806;2023-04-21T11:21:52;13.67;;;5.70;;
68300;SDS011;55146;47.468;18.806;2023-04-21T11:24:21;16.90;;;7.62;;
68300;SDS011;55146;47.468;18.806;2023-04-21T11:26:46;18.53;;;8.70;;
68300;SDS011;55146;47.468;18.806;2023-04-21T11:29:12;13.05;;;7.22;;
68300;SDS011;55146;47.468;18.806;2023-04-21T11:31:39;12.90;;;6.60;;
68300;SDS011;55146;47.468;18.806;2023-04-21T11:34:06;30.63;;;12.53;;
68300;SDS011;55146;47.468;18.806;2023-04-21T11:36:35;10.95;;;5.75;;
68300;SDS011;55146;47.468;18.806;2023-04-21T11:39:06;11.15;;;6.82;;
68300;SDS011;55146;47.468;18.806;2023-04-21T11:41:37;12.50;;;7.23;;
68300;SDS011;55146;47.468;18.806;2023-04-21T11:44:16;12.13;;;6.05;;
68300;SDS011;55146;47.468;18.806;2023-04-21T11:46:58;15.65;;;8.05;;
68300;SDS011;55146;47.468;18.806;2023-04-21T11:49:24;13.90;;;7.25;;
68300;SDS011;55146;47.468;18.806;2023-04-21T11:51:53;16.50;;;7.77;;
68300;SDS011;55146;47.468;18.806;2023-04-21T11:54:19;15.27;;;6.90;;
68300;SDS011;55146;47.468;18.806;2023-04-21T11:56:46;30.55;;;14.77;;
68300;SDS011;55146;47.468;18.806;2023-04-21T11:59:13;26.42;;;12.50;;
68300;SDS011;55146;47.468;18.806;2023-04-21T12:01:43;19.40;;;9.33;;
68300;SDS011;55146;47.468;18.806;2023-04-21T12:04:15;23.67;;;10.23;;
68300;SDS011;55146;47.468;18.806;2023-04-21T12:06:43;12.70;;;7.22;;
68300;SDS011;55146;47.468;18.806;2023-04-21T12:09:15;15.25;;;7.80;;
68300;SDS011;55146;47.468;18.806;2023-04-21T12:11:42;24.20;;;11.40;;
68300;SDS011;55146;47.468;18.806;2023-04-21T12:14:11;14.17;;;7.20;;
68300;SDS011;55146;47.468;18.806;2023-04-21T12:16:36;13.68;;;6.07;;
68300;SDS011;55146;47.468;18.806;2023-04-21T12:19:02;18.57;;;7.10;;
68300;SDS011;55146;47.468;18.806;2023-04-21T12:21:27;21.00;;;9.13;;
68300;SDS011;55146;47.468;18.806;2023-04-21T12:23:53;16.12;;;6.62;;
68300;SDS011;55146;47.468;18.806;2023-04-21T12:26:19;14.37;;;6.40;;
68300;SDS011;55146;47.468;18.806;2023-04-21T12:28:46;19.08;;;8.45;;
68300;SDS011;55146;47.468;18.806;2023-04-21T12:31:11;14.53;;;7.60;;
68300;SDS011;55146;47.468;18.806;2023-04-21T12:33:37;11.18;;;6.12;;
68300;SDS011;55146;47.468;18.806;2023-04-21T12:36:03;13.43;;;6.57;;
68300;SDS011;55146;47.468;18.806;2023-04-21T12:38:28;11.97;;;6.60;;
68300;SDS011;55146;47.468;18.806;2023-04-21T12:40:54;11.63;;;6.73;;
68300;SDS011;55146;47.468;18.806;2023-04-21T12:43:19;10.73;;;7.33;;
68300;SDS011;55146;47.468;18.806;2023-04-21T12:45:44;10.10;;;7.00;;
68300;SDS011;55146;47.468;18.806;2023-04-21T12:48:10;26.80;;;12.47;;
68300;SDS011;55146;47.468;18.806;2023-04-21T12:50:36;17.30;;;8.13;;
68300;SDS011;55146;47.468;18.806;2023-04-21T12:53:01;16.37;;;7.60;;
68300;SDS011;55146;47.468;18.806;2023-04-21T12:55:27;15.33;;;8.40;;
68300;SDS011;55146;47.468;18.806;2023-04-21T12:57:52;12.53;;;7.03;;
68300;SDS011;55146;47.468;18.806;2023-04-21T13:00:17;17.07;;;6.87;;
68300;SDS011;55146;47.468;18.806;2023-04-21T13:02:43;16.20;;;7.73;;
68300;SDS011;55146;47.468;18.806;2023-04-21T13:05:08;15.33;;;7.30;;
68300;SDS011;55146;47.468;18.806;2023-04-21T13:07:36;11.45;;;6.78;;
68300;SDS011;55146;47.468;18.806;2023-04-21T13:10:01;14.43;;;6.90;;
68300;SDS011;55146;47.468;18.806;2023-04-21T13:12:29;14.23;;;6.40;;
68300;SDS011;55146;47.468;18.806;2023-04-21T13:14:54;13.20;;;7.33;;
68300;SDS011;55146;47.468;18.806;2023-04-21T13:17:20;12.17;;;6.00;;
68300;SDS011;55146;47.468;18.806;2023-04-21T13:19:45;10.20;;;7.00;;
68300;SDS011;55146;47.468;18.806;2023-04-21T13:22:11;11.73;;;7.60;;
68300;SDS011;55146;47.468;18.806;2023-04-21T13:24:37;10.20;;;6.65;;
68300;SDS011;55146;47.468;18.806;2023-04-21T13:27:02;12.23;;;7.10;;
68300;SDS011;55146;47.468;18.806;2023-04-21T13:29:28;12.03;;;7.37;;
68300;SDS011;55146;47.468;18.806;2023-04-21T13:31:56;12.35;;;7.43;;
68300;SDS011;55146;47.468;18.806;2023-04-21T13:34:22;11.67;;;7.00;;
68300;SDS011;55146;47.468;18.806;2023-04-21T13:36:47;12.85;;;6.65;;
68300;SDS011;55146;47.468;18.806;2023-04-21T13:39:13;11.27;;;5.83;;
68300;SDS011;55146;47.468;18.806;2023-04-21T13:41:39;18.03;;;10.03;;
68300;SDS011;55146;47.468;18.806;2023-04-21T13:44:04;14.38;;;7.72;;
68300;SDS011;55146;47.468;18.806;2023-04-21T13:46:30;12.70;;;7.77;;
68300;SDS011;55146;47.468;18.806;2023-04-21T13:48:55;13.65;;;6.70;;
68300;SDS011;55146;47.468;18.806;2023-04-21T13:51:21;9.77;;;6.37;;
68300;SDS011;55146;47.468;18.806;2023-04-21T13:53:46;12.20;;;6.33;;
68300;SDS011;55146;47.468;18.806;2023-04-21T13:56:12;13.93;;;6.28;;
68300;SDS011;55146;47.468;18.806;2023-04-21T13:58:38;12.20;;;6.43;;
68300;SDS011;55146;47.468;18.806;2023-04-21T14:01:03;22.10;;;6.70;;
68300;SDS011;55146;47.468;18.806;2023-04-21T14:03:28;15.67;;;7.67;;
68300;SDS011;55146;47.468;18.806;2023-04-21T14:05:54;11.20;;;6.27;;
68300;SDS011;55146;47.468;18.806;2023-04-21T14:08:20;12.52;;;7.07;;
68300;SDS011;55146;47.468;18.806;2023-04-21T14:10:46;12.53;;;5.80;;
68300;SDS011;55146;47.468;18.806;2023-04-21T14:13:11;13.57;;;6.30;;
68300;SDS011;55146;47.468;18.806;2023-04-21T14:15:37;13.23;;;7.17;;
68300;SDS011;55146;47.468;18.806;2023-04-21T14:18:02;18.73;;;9.77;;
68300;SDS011;55146;47.468;18.806;2023-04-21T14:20:28;14.07;;;8.20;;
68300;SDS011;55146;47.468;18.806;2023-04-21T14:22:53;11.37;;;7.57;;
68300;SDS011;55146;47.468;18.806;2023-04-21T14:25:19;12.15;;;6.50;;
68300;SDS011;55146;47.468;18.806;2023-04-21T14:27:44;10.00;;;6.27;;
68300;SDS011;55146;47.468;18.806;2023-04-21T14:30:10;14.47;;;6.37;;
68300;SDS011;55146;47.468;18.806;2023-04-21T14:32:36;12.82;;;6.07;;
68300;SDS011;55146;47.468;18.806;2023-04-21T14:35:02;11.20;;;7.23;;
68300;SDS011;55146;47.468;18.806;2023-04-21T14:37:28;11.82;;;6.82;;
68300;SDS011;55146;47.468;18.806;2023-04-21T14:39:54;15.63;;;7.83;;